createdAt,value
2023-06-03T00:00:02.679Z,1881.00
2023-06-03T00:01:01.628Z,1888.00
2023-06-03T00:02:02.691Z,1887.00
2023-06-03T00:03:02.844Z,1910.00
2023-06-03T00:04:02.008Z,1906.00
2023-06-03T00:05:01.827Z,1907.00
2023-06-03T00:06:02.879Z,1891.00
2023-06-03T00:07:01.857Z,1890.00
2023-06-03T00:08:01.916Z,1908.00
2023-06-03T00:09:01.933Z,1893.00
2023-06-03T00:10:02.999Z,1903.00
2023-06-03T00:11:03.197Z,1898.00
2023-06-03T00:12:03.072Z,1879.00
2023-06-03T00:13:03.105Z,1885.00
2023-06-03T00:14:02.135Z,1874.00
2023-06-03T00:15:03.217Z,1883.00
2023-06-03T00:16:02.287Z,1882.00
2023-06-03T00:17:02.354Z,1886.00
2023-06-03T00:18:02.476Z,1865.00
2023-06-03T00:19:02.365Z,1876.00
2023-06-03T00:20:03.448Z,1882.00
2023-06-03T00:21:02.675Z,1865.00
2023-06-03T00:22:02.499Z,1881.00
2023-06-03T00:23:03.542Z,1885.00
2023-06-03T00:24:03.756Z,1892.00
2023-06-03T00:25:03.636Z,1884.00
2023-06-03T00:26:03.685Z,1886.00
2023-06-03T00:27:02.710Z,1872.00
2023-06-03T00:28:03.770Z,1861.00
2023-06-03T00:29:03.820Z,1863.00
2023-06-03T00:30:02.858Z,1853.00
2023-06-03T00:31:03.126Z,1859.00
2023-06-03T00:32:03.054Z,1868.00
2023-06-03T00:33:04.106Z,1847.00
2023-06-03T00:34:03.083Z,1848.00
2023-06-03T00:35:04.084Z,1848.00
2023-06-03T00:36:04.133Z,1844.00
2023-06-03T00:37:04.158Z,1852.00
2023-06-03T00:38:04.233Z,1847.00
2023-06-03T00:39:03.246Z,1836.00
2023-06-03T00:40:04.288Z,1841.00
2023-06-03T00:41:04.552Z,1837.00
2023-06-03T00:42:03.372Z,1830.00
2023-06-03T00:43:04.449Z,1826.00
2023-06-03T00:44:04.470Z,1842.00
2023-06-03T00:45:03.509Z,1828.00
2023-06-03T00:46:04.653Z,1845.00
2023-06-03T00:47:04.621Z,1849.00
2023-06-03T00:48:03.704Z,1837.00
2023-06-03T00:49:04.707Z,1847.00
2023-06-03T00:50:03.773Z,1844.00
2023-06-03T00:51:05.047Z,1838.00
2023-06-03T00:52:03.835Z,1837.00
2023-06-03T00:53:04.875Z,1837.00
2023-06-03T00:54:04.921Z,1825.00
2023-06-03T00:55:03.950Z,1830.00
2023-06-03T00:56:04.004Z,1818.00
2023-06-03T00:57:05.084Z,1823.00
2023-06-03T00:58:05.105Z,1839.00
2023-06-03T00:59:05.190Z,1836.00
2023-06-03T01:00:04.183Z,1835.00
2023-06-03T01:01:04.513Z,1818.00
2023-06-03T01:02:05.343Z,1823.00
2023-06-03T01:03:05.450Z,1823.00
2023-06-03T01:04:05.351Z,1817.00
2023-06-03T01:05:05.462Z,1805.00
2023-06-03T01:06:05.446Z,1815.00
2023-06-03T01:07:04.513Z,1814.00
2023-06-03T01:08:05.560Z,1804.00
2023-06-03T01:09:04.580Z,1820.00
2023-06-03T01:10:05.644Z,1817.00
2023-06-03T01:11:05.947Z,1809.00
2023-06-03T01:12:04.756Z,1823.00
2023-06-03T01:13:05.798Z,1825.00
2023-06-03T01:14:04.844Z,1805.00
2023-06-03T01:15:04.897Z,1800.00
2023-06-03T01:16:04.962Z,1806.00
2023-06-03T01:17:05.968Z,1813.00
2023-06-03T01:18:06.174Z,1809.00
2023-06-03T01:19:05.053Z,1786.00
2023-06-03T01:20:06.117Z,1792.00
2023-06-03T01:21:06.356Z,1795.00
2023-06-03T01:22:05.182Z,1796.00
2023-06-03T01:23:06.252Z,1801.00
2023-06-03T01:24:06.279Z,1795.00
2023-06-03T01:25:05.430Z,1798.00
2023-06-03T01:26:06.366Z,1806.00
2023-06-03T01:27:06.401Z,1806.00
2023-06-03T01:28:05.469Z,1806.00
2023-06-03T01:29:06.505Z,1804.00
2023-06-03T01:30:05.548Z,1789.00
2023-06-03T01:31:05.901Z,1795.00
2023-06-03T01:32:05.654Z,1787.00
2023-06-03T01:33:06.834Z,1777.00
2023-06-03T01:34:06.744Z,1798.00
2023-06-03T01:35:06.787Z,1792.00
2023-06-03T01:36:05.849Z,1781.00
2023-06-03T01:37:06.864Z,1786.00
2023-06-03T01:38:06.965Z,1783.00
2023-06-03T01:39:06.944Z,1770.00
2023-06-03T01:40:06.992Z,1784.00
2023-06-03T01:41:06.349Z,1769.00
2023-06-03T01:42:07.080Z,1771.00
2023-06-03T01:43:06.128Z,1751.00
2023-06-03T01:44:06.179Z,1767.00
2023-06-03T01:45:06.222Z,1760.00
2023-06-03T01:46:07.337Z,1759.00
2023-06-03T01:47:07.358Z,1756.00
2023-06-03T01:48:07.419Z,1760.00
2023-06-03T01:49:06.406Z,1768.00
2023-06-03T01:50:07.450Z,1752.00
2023-06-03T01:51:07.490Z,1769.00
2023-06-03T01:52:07.536Z,1776.00
2023-06-03T01:53:08.075Z,1764.00
2023-06-03T01:54:06.680Z,1765.00
2023-06-03T01:55:07.717Z,1755.00
2023-06-03T01:56:07.769Z,1752.00
2023-06-03T01:57:07.858Z,1760.00
2023-06-03T01:58:06.857Z,1769.00
2023-06-03T01:59:07.892Z,1760.00
2023-06-03T02:00:07.960Z,1756.00
2023-06-03T02:01:07.158Z,1754.00
2023-06-03T02:02:07.132Z,1756.00
2023-06-03T02:03:07.212Z,1757.00
2023-06-03T02:04:08.166Z,1755.00
2023-06-03T02:05:08.197Z,1747.00
2023-06-03T02:06:07.267Z,1734.00
2023-06-03T02:07:08.284Z,1735.00
2023-06-03T02:08:07.330Z,1741.00
2023-06-03T02:09:08.368Z,1747.00
2023-06-03T02:10:07.425Z,1735.00
2023-06-03T02:11:08.483Z,1746.00
2023-06-03T02:12:08.513Z,1730.00
2023-06-03T02:13:07.558Z,1743.00
2023-06-03T02:14:07.616Z,1743.00
2023-06-03T02:15:07.658Z,1744.00
2023-06-03T02:16:08.744Z,1743.00
2023-06-03T02:17:08.748Z,1739.00
2023-06-03T02:18:07.827Z,1728.00
2023-06-03T02:19:07.808Z,1726.00
2023-06-03T02:20:08.894Z,1721.00
2023-06-03T02:21:08.906Z,1741.00
2023-06-03T02:22:07.946Z,1735.00
2023-06-03T02:23:08.994Z,1733.00
2023-06-03T02:24:08.037Z,1730.00
2023-06-03T02:25:09.093Z,1732.00
2023-06-03T02:26:09.123Z,1722.00
2023-06-03T02:27:09.163Z,1736.00
2023-06-03T02:28:08.206Z,1719.00
2023-06-03T02:29:09.285Z,1726.00
2023-06-03T02:30:09.267Z,1733.00
2023-06-03T02:31:08.317Z,1721.00
2023-06-03T02:32:09.395Z,1724.00
2023-06-03T02:33:09.451Z,1717.00
2023-06-03T02:34:08.438Z,1727.00
2023-06-03T02:35:09.448Z,1718.00
2023-06-03T02:36:09.491Z,1728.00
2023-06-03T02:37:08.548Z,1724.00
2023-06-03T02:38:09.576Z,1723.00
2023-06-03T02:39:08.625Z,1725.00
2023-06-03T02:40:09.633Z,1703.00
2023-06-03T02:41:08.656Z,1714.00
2023-06-03T02:42:09.706Z,1719.00
2023-06-03T02:43:08.746Z,1708.00
2023-06-03T02:44:08.755Z,1701.00
2023-06-03T02:45:09.796Z,1693.00
2023-06-03T02:46:09.874Z,1700.00
2023-06-03T02:47:09.893Z,1699.00
2023-06-03T02:48:09.967Z,1697.00
2023-06-03T02:49:08.993Z,1687.00
2023-06-03T02:50:10.008Z,1689.00
2023-06-03T02:51:10.042Z,1691.00
2023-06-03T02:52:09.082Z,1689.00
2023-06-03T02:53:09.095Z,1688.00
2023-06-03T02:54:09.136Z,1692.00
2023-06-03T02:55:09.217Z,1689.00
2023-06-03T02:56:09.177Z,1695.00
2023-06-03T02:57:09.188Z,1692.00
2023-06-03T02:58:09.225Z,1697.00
2023-06-03T02:59:10.262Z,1689.00
2023-06-03T03:00:09.276Z,1690.00
2023-06-03T03:01:10.365Z,1680.00
2023-06-03T03:02:10.318Z,1688.00
2023-06-03T03:03:10.455Z,1684.00
2023-06-03T03:04:09.386Z,1677.00
2023-06-03T03:05:10.381Z,1672.00
2023-06-03T03:06:09.421Z,1671.00
2023-06-03T03:07:10.460Z,1670.00
2023-06-03T03:08:10.467Z,1675.00
2023-06-03T03:09:10.565Z,1666.00
2023-06-03T03:10:10.505Z,1666.00
2023-06-03T03:11:10.538Z,1676.00
2023-06-03T03:12:10.566Z,1669.00
2023-06-03T03:13:10.564Z,1669.00
2023-06-03T03:14:09.582Z,1679.00
2023-06-03T03:15:10.606Z,1670.00
2023-06-03T03:16:09.674Z,1665.00
2023-06-03T03:17:09.633Z,1675.00
2023-06-03T03:18:10.693Z,1658.00
2023-06-03T03:19:09.652Z,1661.00
2023-06-03T03:20:10.684Z,1660.00
2023-06-03T03:21:09.692Z,1662.00
2023-06-03T03:22:10.694Z,1662.00
2023-06-03T03:23:09.747Z,1660.00
2023-06-03T03:24:10.730Z,1662.00
2023-06-03T03:25:09.761Z,1653.00
2023-06-03T03:26:10.837Z,1645.00
2023-06-03T03:27:09.785Z,1641.00
2023-06-03T03:28:10.801Z,1649.00
2023-06-03T03:29:09.834Z,1646.00
2023-06-03T03:30:10.878Z,1629.00
2023-06-03T03:31:10.862Z,1641.00
2023-06-03T03:32:10.907Z,1637.00
2023-06-03T03:33:10.908Z,1643.00
2023-06-03T03:34:09.914Z,1647.00
2023-06-03T03:35:09.932Z,1636.00
2023-06-03T03:36:09.940Z,1643.00
2023-06-03T03:37:11.055Z,1638.00
2023-06-03T03:38:10.972Z,1643.00
2023-06-03T03:39:10.986Z,1640.00
2023-06-03T03:40:11.020Z,1646.00
2023-06-03T03:41:11.026Z,1643.00
2023-06-03T03:42:11.047Z,1633.00
2023-06-03T03:43:11.130Z,1641.00
2023-06-03T03:44:11.119Z,1629.00
2023-06-03T03:45:11.129Z,1628.00
2023-06-03T03:46:10.156Z,1613.00
2023-06-03T03:47:11.176Z,1616.00
2023-06-03T03:48:11.205Z,1623.00
2023-06-03T03:49:10.220Z,1607.00
2023-06-03T03:50:11.225Z,1618.00
2023-06-03T03:51:10.259Z,1616.00
2023-06-03T03:52:13.219Z,1615.00
2023-06-03T03:53:11.248Z,1616.00
2023-06-03T03:54:11.227Z,1618.00
2023-06-03T03:55:10.224Z,1620.00
2023-06-03T03:56:11.249Z,1628.00
2023-06-03T03:57:10.198Z,1630.00
2023-06-03T03:58:10.199Z,1615.00
2023-06-03T03:59:10.189Z,1629.00
2023-06-03T04:00:10.185Z,1600.00
2023-06-03T04:01:11.161Z,1604.00
2023-06-03T04:02:11.165Z,1607.00
2023-06-03T04:03:11.281Z,1599.00
2023-06-03T04:04:11.166Z,1601.00
2023-06-03T04:05:10.138Z,1607.00
2023-06-03T04:06:11.135Z,1604.00
2023-06-03T04:07:11.136Z,1601.00
2023-06-03T04:08:11.136Z,1608.00
2023-06-03T04:09:10.139Z,1597.00
2023-06-03T04:10:11.111Z,1590.00
2023-06-03T04:11:11.118Z,1594.00
2023-06-03T04:12:10.086Z,1579.00
2023-06-03T04:13:11.085Z,1576.00
2023-06-03T04:14:10.091Z,1586.00
2023-06-03T04:15:11.073Z,1591.00
2023-06-03T04:16:10.119Z,1587.00
2023-06-03T04:17:10.052Z,1590.00
2023-06-03T04:18:11.052Z,1584.00
2023-06-03T04:19:10.042Z,1582.00
2023-06-03T04:20:11.038Z,1573.00
2023-06-03T04:21:10.032Z,1585.00
2023-06-03T04:22:10.024Z,1590.00
2023-06-03T04:23:11.003Z,1585.00
2023-06-03T04:24:10.090Z,1564.00
2023-06-03T04:25:10.089Z,1576.00
2023-06-03T04:26:09.994Z,1578.00
2023-06-03T04:27:10.163Z,1570.00
2023-06-03T04:28:10.045Z,1578.00
2023-06-03T04:29:10.055Z,1563.00
2023-06-03T04:30:10.973Z,1564.00
2023-06-03T04:31:09.959Z,1572.00
2023-06-03T04:32:09.983Z,1572.00
2023-06-03T04:33:10.995Z,1568.00
2023-06-03T04:34:09.950Z,1576.00
2023-06-03T04:35:10.942Z,1566.00
2023-06-03T04:36:10.928Z,1575.00
2023-06-03T04:37:10.938Z,1574.00
2023-06-03T04:38:10.901Z,1568.00
2023-06-03T04:39:10.927Z,1564.00
2023-06-03T04:40:09.895Z,1567.00
2023-06-03T04:41:10.886Z,1568.00
2023-06-03T04:42:10.893Z,1566.00
2023-06-03T04:43:09.883Z,1572.00
2023-06-03T04:44:10.938Z,1562.00
2023-06-03T04:45:09.879Z,1549.00
2023-06-03T04:46:10.875Z,1558.00
2023-06-03T04:47:10.848Z,1560.00
2023-06-03T04:48:10.904Z,1568.00
2023-06-03T04:49:10.850Z,1554.00
2023-06-03T04:50:10.828Z,1562.00
2023-06-03T04:51:09.822Z,1546.00
2023-06-03T04:52:10.854Z,1564.00
2023-06-03T04:53:10.854Z,1561.00
2023-06-03T04:54:10.859Z,1550.00
2023-06-03T04:55:10.866Z,1542.00
2023-06-03T04:56:10.850Z,1558.00
2023-06-03T04:57:09.888Z,1556.00
2023-06-03T04:58:09.876Z,1551.00
2023-06-03T04:59:10.908Z,1540.00
2023-06-03T05:00:10.937Z,1545.00
2023-06-03T05:01:10.919Z,1548.00
2023-06-03T05:02:11.117Z,1550.00
2023-06-03T05:03:11.123Z,1548.00
2023-06-03T05:04:10.084Z,1547.00
2023-06-03T05:05:10.988Z,1547.00
2023-06-03T05:06:11.010Z,1550.00
2023-06-03T05:07:10.044Z,1537.00
2023-06-03T05:08:10.036Z,1533.00
2023-06-03T05:09:10.061Z,1540.00
2023-06-03T05:10:11.112Z,1548.00
2023-06-03T05:11:11.097Z,1543.00
2023-06-03T05:12:10.120Z,1536.00
2023-06-03T05:13:11.146Z,1545.00
2023-06-03T05:14:10.225Z,1542.00
2023-06-03T05:15:11.188Z,1535.00
2023-06-03T05:16:10.246Z,1540.00
2023-06-03T05:17:11.265Z,1504.00
2023-06-03T05:18:11.279Z,1535.00
2023-06-03T05:19:10.317Z,1538.00
2023-06-03T05:20:10.343Z,1507.00
2023-06-03T05:21:10.372Z,1527.00
2023-06-03T05:22:10.424Z,1513.00
2023-06-03T05:23:11.422Z,1519.00
2023-06-03T05:24:10.474Z,1521.00
2023-06-03T05:25:10.488Z,1527.00
2023-06-03T05:26:11.506Z,1516.00
2023-06-03T05:27:11.541Z,1493.00
2023-06-03T05:28:11.596Z,1510.00
2023-06-03T05:29:11.643Z,1498.00
2023-06-03T05:30:10.702Z,1510.00
2023-06-03T05:31:11.744Z,1513.00
2023-06-03T05:32:11.785Z,1490.00
2023-06-03T05:33:10.850Z,1496.00
2023-06-03T05:34:10.850Z,1495.00
2023-06-03T05:35:11.883Z,1491.00
2023-06-03T05:36:10.882Z,1493.00
2023-06-03T05:37:10.942Z,1483.00
2023-06-03T05:38:10.958Z,1499.00
2023-06-03T05:39:12.015Z,1495.00
2023-06-03T05:40:12.028Z,1483.00
2023-06-03T05:41:12.088Z,1483.00
2023-06-03T05:42:11.105Z,1481.00
2023-06-03T05:43:11.148Z,1488.00
2023-06-03T05:44:12.209Z,1511.00
2023-06-03T05:45:12.214Z,1501.00
2023-06-03T05:46:12.309Z,1489.00
2023-06-03T05:47:12.311Z,1476.00
2023-06-03T05:48:12.387Z,1488.00
2023-06-03T05:49:12.416Z,1486.00
2023-06-03T05:50:12.463Z,1480.00
2023-06-03T05:51:11.488Z,1489.00
2023-06-03T05:52:12.566Z,1488.00
2023-06-03T05:53:12.596Z,1486.00
2023-06-03T05:54:12.652Z,1478.00
2023-06-03T05:55:12.671Z,1467.00
2023-06-03T05:56:12.742Z,1478.00
2023-06-03T05:57:12.767Z,1466.00
2023-06-03T05:58:12.833Z,1486.00
2023-06-03T05:59:11.862Z,1471.00
2023-06-03T06:00:11.923Z,1482.00
2023-06-03T06:01:12.942Z,1480.00
2023-06-03T06:02:12.994Z,1460.00
2023-06-03T06:03:13.139Z,1473.00
2023-06-03T06:04:13.256Z,1466.00
2023-06-03T06:05:13.139Z,1482.00
2023-06-03T06:06:12.166Z,1478.00
2023-06-03T06:07:13.214Z,1486.00
2023-06-03T06:08:12.286Z,1489.00
2023-06-03T06:09:13.326Z,1479.00
2023-06-03T06:10:13.440Z,1482.00
2023-06-03T06:11:13.429Z,1504.00
2023-06-03T06:12:12.449Z,1481.00
2023-06-03T06:13:12.492Z,1495.00
2023-06-03T06:14:13.534Z,1479.00
2023-06-03T06:15:13.585Z,1476.00
2023-06-03T06:16:12.835Z,1478.00
2023-06-03T06:17:12.660Z,1472.00
2023-06-03T06:18:13.691Z,1487.00
2023-06-03T06:19:12.751Z,1489.00
2023-06-03T06:20:12.792Z,1492.00
2023-06-03T06:21:13.816Z,1478.00
2023-06-03T06:22:13.828Z,1472.00
2023-06-03T06:23:13.944Z,1469.00
2023-06-03T06:24:13.973Z,1486.00
2023-06-03T06:25:13.978Z,1472.00
2023-06-03T06:26:14.001Z,1472.00
2023-06-03T06:27:13.049Z,1480.00
2023-06-03T06:28:14.105Z,1470.00
2023-06-03T06:29:14.140Z,1470.00
2023-06-03T06:30:13.198Z,1453.00
2023-06-03T06:31:13.498Z,1461.00
2023-06-03T06:32:13.322Z,1464.00
2023-06-03T06:33:13.311Z,1466.00
2023-06-03T06:34:14.339Z,1459.00
2023-06-03T06:35:14.449Z,1455.00
2023-06-03T06:36:14.446Z,1463.00
2023-06-03T06:37:14.455Z,1463.00
2023-06-03T06:38:14.495Z,1467.00
2023-06-03T06:39:14.544Z,1462.00
2023-06-03T06:40:13.579Z,1455.00
2023-06-03T06:41:14.602Z,1459.00
2023-06-03T06:42:14.642Z,1446.00
2023-06-03T06:43:13.656Z,1463.00
2023-06-03T06:44:13.693Z,1461.00
2023-06-03T06:45:13.760Z,1463.00
2023-06-03T06:46:14.861Z,1458.00
2023-06-03T06:47:14.825Z,1451.00
2023-06-03T06:48:13.864Z,1441.00
2023-06-03T06:49:13.916Z,1454.00
2023-06-03T06:50:13.954Z,1446.00
2023-06-03T06:51:14.954Z,1455.00
2023-06-03T06:52:15.002Z,1436.00
2023-06-03T06:53:15.032Z,1456.00
2023-06-03T06:54:14.063Z,1462.00
2023-06-03T06:55:14.078Z,1457.00
2023-06-03T06:56:14.099Z,1462.00
2023-06-03T06:57:14.126Z,1440.00
2023-06-03T06:58:14.187Z,1443.00
2023-06-03T06:59:14.181Z,1449.00
2023-06-03T07:00:14.218Z,1440.00
2023-06-03T07:01:14.271Z,1453.00
2023-06-03T07:02:15.248Z,1434.00
2023-06-03T07:03:15.397Z,1432.00
2023-06-03T07:04:14.299Z,1435.00
2023-06-03T07:05:17.686Z,1428.00
2023-06-03T07:06:14.325Z,1434.00
2023-06-03T07:07:15.301Z,1441.00
2023-06-03T07:08:14.331Z,1428.00
2023-06-03T07:09:15.292Z,1430.00
2023-06-03T07:10:15.295Z,1438.00
2023-06-03T07:11:15.280Z,1424.00
2023-06-03T07:12:15.281Z,1425.00
2023-06-03T07:13:15.292Z,1433.00
2023-06-03T07:14:15.267Z,1425.00
2023-06-03T07:15:14.292Z,1439.00
2023-06-03T07:16:15.307Z,1432.00
2023-06-03T07:17:15.235Z,1426.00
2023-06-03T07:18:15.238Z,1427.00
2023-06-03T07:19:14.222Z,1425.00
2023-06-03T07:20:14.281Z,1426.00
2023-06-03T07:21:15.223Z,1437.00
2023-06-03T07:22:14.217Z,1443.00
2023-06-03T07:23:15.257Z,1434.00
2023-06-03T07:24:14.193Z,1435.00
2023-06-03T07:25:15.200Z,1428.00
2023-06-03T07:26:14.180Z,1438.00
2023-06-03T07:27:15.184Z,1441.00
2023-06-03T07:28:14.175Z,1427.00
2023-06-03T07:29:15.163Z,1425.00
2023-06-03T07:30:15.205Z,1433.00
2023-06-03T07:31:14.464Z,1434.00
2023-06-03T07:32:15.227Z,1424.00
2023-06-03T07:33:15.150Z,1434.00
2023-06-03T07:34:15.127Z,1425.00
2023-06-03T07:35:15.139Z,1418.00
2023-06-03T07:36:16.220Z,1432.00
2023-06-03T07:37:15.116Z,1433.00
2023-06-03T07:38:15.103Z,1435.00
2023-06-03T07:39:14.094Z,1436.00
2023-06-03T07:40:15.265Z,1421.00
2023-06-03T07:41:15.088Z,1421.00
2023-06-03T07:42:15.074Z,1412.00
2023-06-03T07:43:14.068Z,1423.00
2023-06-03T07:44:14.085Z,1408.00
2023-06-03T07:45:15.082Z,1400.00
2023-06-03T07:46:14.097Z,1386.00
2023-06-03T07:47:14.043Z,1399.00
2023-06-03T07:48:15.086Z,1400.00
2023-06-03T07:49:15.020Z,1394.00
2023-06-03T07:50:15.044Z,1385.00
2023-06-03T07:51:14.015Z,1395.00
2023-06-03T07:52:15.014Z,1380.00
2023-06-03T07:53:14.999Z,1403.00
2023-06-03T07:54:14.030Z,1380.00
2023-06-03T07:55:14.006Z,1370.00
2023-06-03T07:56:15.001Z,1376.00
2023-06-03T07:57:13.967Z,1384.00
2023-06-03T07:58:13.964Z,1388.00
2023-06-03T07:59:13.974Z,1386.00
2023-06-03T08:00:14.980Z,1379.00
2023-06-03T08:01:14.967Z,1388.00
2023-06-03T08:02:13.998Z,1379.00
2023-06-03T08:03:14.949Z,1377.00
2023-06-03T08:04:14.936Z,1375.00
2023-06-03T08:05:14.934Z,1366.00
2023-06-03T08:06:14.955Z,1368.00
2023-06-03T08:07:15.042Z,1369.00
2023-06-03T08:08:14.907Z,1373.00
2023-06-03T08:09:13.900Z,1359.00
2023-06-03T08:10:14.921Z,1363.00
2023-06-03T08:11:14.888Z,1356.00
2023-06-03T08:12:14.874Z,1359.00
2023-06-03T08:13:14.918Z,1360.00
2023-06-03T08:14:14.872Z,1353.00
2023-06-03T08:15:14.889Z,1375.00
2023-06-03T08:16:14.894Z,1364.00
2023-06-03T08:17:14.846Z,1358.00
2023-06-03T08:18:14.842Z,1352.00
2023-06-03T08:19:14.838Z,1371.00
2023-06-03T08:20:14.835Z,1344.00
2023-06-03T08:21:13.837Z,1358.00
2023-06-03T08:22:14.843Z,1353.00
2023-06-03T08:23:14.722Z,1359.00
2023-06-03T08:24:13.829Z,1354.00
2023-06-03T08:25:14.801Z,1363.00
2023-06-03T08:26:14.815Z,1351.00
2023-06-03T08:27:14.792Z,1359.00
2023-06-03T08:28:13.789Z,1353.00
2023-06-03T08:29:13.800Z,1350.00
2023-06-03T08:30:14.783Z,1360.00
2023-06-03T08:31:14.810Z,1351.00
2023-06-03T08:32:14.760Z,1355.00
2023-06-03T08:33:14.791Z,1342.00
2023-06-03T08:34:14.742Z,1351.00
2023-06-03T08:35:13.743Z,1358.00
2023-06-03T08:36:13.721Z,1352.00
2023-06-03T08:37:13.728Z,1359.00
2023-06-03T08:38:14.744Z,1360.00
2023-06-03T08:39:14.775Z,1361.00
2023-06-03T08:40:13.818Z,1359.00
2023-06-03T08:41:13.856Z,1345.00
2023-06-03T08:42:13.904Z,1347.00
2023-06-03T08:43:14.475Z,1334.00
2023-06-03T08:44:13.970Z,1352.00
2023-06-03T08:45:13.996Z,1360.00
2023-06-03T08:46:15.041Z,1338.00
2023-06-03T08:47:14.037Z,1334.00
2023-06-03T08:48:15.158Z,1339.00
2023-06-03T08:49:15.108Z,1338.00
2023-06-03T08:50:14.131Z,1331.00
2023-06-03T08:51:14.169Z,1332.00
2023-06-03T08:52:14.186Z,1340.00
2023-06-03T08:53:14.231Z,1324.00
2023-06-03T08:54:15.249Z,1336.00
2023-06-03T08:55:14.298Z,1341.00
2023-06-03T08:56:14.335Z,1345.00
2023-06-03T08:57:14.363Z,1340.00
2023-06-03T08:58:14.396Z,1323.00
2023-06-03T08:59:15.424Z,1327.00
2023-06-03T09:00:15.482Z,1313.00
2023-06-03T09:01:14.558Z,1304.00
2023-06-03T09:02:14.570Z,1300.00
2023-06-03T09:03:14.657Z,1296.00
2023-06-03T09:04:18.229Z,1298.00
2023-06-03T09:05:15.640Z,1300.00
2023-06-03T09:06:14.640Z,1302.00
2023-06-03T09:07:15.637Z,1302.00
2023-06-03T09:08:15.618Z,1305.00
2023-06-03T09:09:15.622Z,1322.00
2023-06-03T09:10:17.102Z,1318.00
2023-06-03T09:11:15.607Z,1318.00
2023-06-03T09:12:15.591Z,1320.00
2023-06-03T09:13:14.596Z,1320.00
2023-06-03T09:14:15.589Z,1318.00
2023-06-03T09:15:15.602Z,1307.00
2023-06-03T09:16:17.199Z,1305.00
2023-06-03T09:17:14.588Z,1307.00
2023-06-03T09:18:15.556Z,1308.00
2023-06-03T09:19:14.548Z,1312.00
2023-06-03T09:20:15.543Z,1302.00
2023-06-03T09:21:14.538Z,1321.00
2023-06-03T09:22:14.608Z,1312.00
2023-06-03T09:23:14.599Z,1321.00
2023-06-03T09:24:14.515Z,1318.00
2023-06-03T09:25:14.517Z,1313.00
2023-06-03T09:26:14.501Z,1313.00
2023-06-03T09:27:15.494Z,1307.00
2023-06-03T09:28:17.204Z,1309.00
2023-06-03T09:29:15.522Z,1310.00
2023-06-03T09:30:14.478Z,1311.00
2023-06-03T09:31:14.640Z,1314.00
2023-06-03T09:32:15.465Z,1303.00
2023-06-03T09:33:14.496Z,1306.00
2023-06-03T09:34:14.456Z,1298.00
2023-06-03T09:35:14.434Z,1292.00
2023-06-03T09:36:16.903Z,1279.00
2023-06-03T09:37:14.419Z,1280.00
2023-06-03T09:38:14.432Z,1282.00
2023-06-03T09:39:14.424Z,1284.00
2023-06-03T09:40:15.395Z,1280.00
2023-06-03T09:41:15.400Z,1279.00
2023-06-03T09:42:15.391Z,1289.00
2023-06-03T09:43:15.389Z,1284.00
2023-06-03T09:44:16.139Z,1295.00
2023-06-03T09:45:15.374Z,1282.00
2023-06-03T09:46:15.355Z,1292.00
2023-06-03T09:47:15.391Z,1295.00
2023-06-03T09:48:15.336Z,1259.00
2023-06-03T09:49:24.345Z,1268.00
2023-06-03T09:50:16.923Z,1296.00
2023-06-03T09:51:15.322Z,1296.00
2023-06-03T09:52:15.313Z,1297.00
2023-06-03T09:53:14.326Z,1276.00
2023-06-03T09:54:14.312Z,1273.00
2023-06-03T09:55:15.304Z,1270.00
2023-06-03T09:56:16.224Z,1290.00
2023-06-03T09:57:14.333Z,1290.00
2023-06-03T09:58:14.284Z,1290.00
2023-06-03T09:59:15.300Z,1281.00
2023-06-03T10:00:14.282Z,1254.00
2023-06-03T10:01:14.333Z,1255.00
2023-06-03T10:02:15.353Z,1266.00
2023-06-03T10:03:15.314Z,1261.00
2023-06-03T10:04:15.225Z,1247.00
2023-06-03T10:05:15.233Z,1242.00
2023-06-03T10:06:15.240Z,1244.00
2023-06-03T10:07:14.221Z,1246.00
2023-06-03T10:08:14.204Z,1236.00
2023-06-03T10:09:14.190Z,1244.00
2023-06-03T10:10:14.185Z,1239.00
2023-06-03T10:11:14.182Z,1241.00
2023-06-03T10:12:15.205Z,1241.00
2023-06-03T10:13:15.160Z,1231.00
2023-06-03T10:14:15.135Z,1221.00
2023-06-03T10:15:14.182Z,1221.00
2023-06-03T10:16:14.132Z,1230.00
2023-06-03T10:17:15.114Z,1221.00
2023-06-03T10:18:15.135Z,1232.00
2023-06-03T10:19:15.105Z,1224.00
2023-06-03T10:20:14.113Z,1224.00
2023-06-03T10:21:14.146Z,1220.00
2023-06-03T10:22:15.089Z,1222.00
2023-06-03T10:23:15.145Z,1224.00
2023-06-03T10:24:17.991Z,1218.00
2023-06-03T10:25:14.068Z,1219.00
2023-06-03T10:26:14.063Z,1220.00
2023-06-03T10:27:15.071Z,1204.00
2023-06-03T10:28:14.057Z,1195.00
2023-06-03T10:29:15.047Z,1204.00
2023-06-03T10:30:15.090Z,1221.00
2023-06-03T10:31:15.033Z,1200.00
2023-06-03T10:32:15.016Z,1204.00
2023-06-03T10:33:15.002Z,1191.00
2023-06-03T10:34:15.000Z,1198.00
2023-06-03T10:35:14.996Z,1191.00
2023-06-03T10:36:14.996Z,1209.00
2023-06-03T10:37:14.982Z,1190.00
2023-06-03T10:38:14.988Z,1197.00
2023-06-03T10:39:14.956Z,1184.00
2023-06-03T10:40:14.962Z,1181.00
2023-06-03T10:41:14.965Z,1187.00
2023-06-03T10:42:15.000Z,1187.00
2023-06-03T10:43:14.061Z,1188.00
2023-06-03T10:44:15.102Z,1184.00
2023-06-03T10:45:15.153Z,1172.00
2023-06-03T10:46:15.236Z,1170.00
2023-06-03T10:47:14.247Z,1174.00
2023-06-03T10:48:14.315Z,1178.00
2023-06-03T10:49:15.326Z,1157.00
2023-06-03T10:50:14.385Z,1155.00
2023-06-03T10:51:15.414Z,1149.00
2023-06-03T10:52:15.489Z,1170.00
2023-06-03T10:53:16.710Z,1172.00
2023-06-03T10:54:14.485Z,1172.00
2023-06-03T10:55:14.522Z,1173.00
2023-06-03T10:56:15.474Z,1176.00
2023-06-03T10:57:14.466Z,1175.00
2023-06-03T10:58:15.455Z,1193.00
2023-06-03T10:59:15.443Z,1204.00
2023-06-03T11:00:15.470Z,1201.00
2023-06-03T11:01:15.475Z,1178.00
2023-06-03T11:02:14.453Z,1171.00
2023-06-03T11:03:14.415Z,1170.00
2023-06-03T11:04:15.532Z,1177.00
2023-06-03T11:05:15.416Z,1177.00
2023-06-03T11:06:15.433Z,1181.00
2023-06-03T11:07:14.407Z,1145.00
2023-06-03T11:08:15.379Z,1151.00
2023-06-03T11:09:15.378Z,1162.00
2023-06-03T11:10:14.370Z,1157.00
2023-06-03T11:11:15.375Z,1167.00
2023-06-03T11:12:15.375Z,1157.00
2023-06-03T11:13:15.347Z,1150.00
2023-06-03T11:14:15.337Z,1162.00
2023-06-03T11:15:15.329Z,1153.00
2023-06-03T11:16:15.345Z,1147.00
2023-06-03T11:17:15.323Z,1142.00
2023-06-03T11:18:15.333Z,1134.00
2023-06-03T11:19:15.434Z,1142.00
2023-06-03T11:20:15.435Z,1148.00
2023-06-03T11:21:15.472Z,1158.00
2023-06-03T11:22:15.524Z,1127.00
2023-06-03T11:23:15.578Z,1146.00
2023-06-03T11:24:15.598Z,1147.00
2023-06-03T11:25:15.653Z,1126.00
2023-06-03T11:26:14.693Z,1146.00
2023-06-03T11:27:14.746Z,1132.00
2023-06-03T11:28:15.782Z,1142.00
2023-06-03T11:29:15.807Z,1143.00
2023-06-03T11:30:15.847Z,1135.00
2023-06-03T11:31:14.979Z,1140.00
2023-06-03T11:32:14.942Z,1139.00
2023-06-03T11:33:14.970Z,1126.00
2023-06-03T11:34:16.034Z,1127.00
2023-06-03T11:35:16.057Z,1123.00
2023-06-03T11:36:16.094Z,1117.00
2023-06-03T11:37:16.159Z,1109.00
2023-06-03T11:38:16.181Z,1119.00
2023-06-03T11:39:15.253Z,1131.00
2023-06-03T11:40:16.327Z,1139.00
2023-06-03T11:41:16.319Z,1149.00
2023-06-03T11:42:15.362Z,1153.00
2023-06-03T11:43:15.396Z,1137.00
2023-06-03T11:44:25.039Z,1120.00
2023-06-03T11:45:16.462Z,1121.00
2023-06-03T11:46:16.476Z,1126.00
2023-06-03T11:47:15.416Z,1132.00
2023-06-03T11:48:15.464Z,1137.00
2023-06-03T11:49:15.439Z,1124.00
2023-06-03T11:50:15.404Z,1119.00
2023-06-03T11:51:16.381Z,1105.00
2023-06-03T11:52:15.370Z,1100.00
2023-06-03T11:53:15.369Z,1096.00
2023-06-03T11:54:16.386Z,1090.00
2023-06-03T11:55:16.468Z,1097.00
2023-06-03T11:56:16.795Z,1101.00
2023-06-03T11:57:16.359Z,1110.00
2023-06-03T11:58:15.330Z,1120.00
2023-06-03T11:59:15.324Z,1121.00
2023-06-03T12:00:16.317Z,1127.00
2023-06-03T12:01:16.328Z,1118.00
2023-06-03T12:02:15.336Z,1095.00
2023-06-03T12:03:16.485Z,1102.00
2023-06-03T12:04:15.282Z,1107.00
2023-06-03T12:05:16.292Z,1107.00